TimeCST,TemperatureF,Dew PointF,Humidity,Sea Level PressureIn,VisibilityMPH,Wind Direction,Wind SpeedMPH,Gust SpeedMPH,PrecipitationIn,Events,Conditions,WindDirDegrees,DateUTC
12:15 AM,24.8,18.9,78,30.04,10.0,West,18.4,23.0,N/A,,Overcast,270,2013-02-12 06:15:00
12:35 AM,24.8,19.0,79,30.04,10.0,West,12.7,-,N/A,,Overcast,270,2013-02-12 06:35:00
12:55 AM,24.3,18.1,77,30.04,10.0,West,16.1,20.7,N/A,,Overcast,260,2013-02-12 06:55:00
1:15 AM,23.9,18.1,79,30.05,10.0,West,16.1,23.0,N/A,,Overcast,270,2013-02-12 07:15:00
1:35 AM,23.9,18.1,79,30.05,10.0,West,15.0,23.0,N/A,,Overcast,260,2013-02-12 07:35:00
1:55 AM,23.9,17.6,77,30.06,10.0,West,19.6,27.6,N/A,,Overcast,270,2013-02-12 07:55:00
2:15 AM,23.9,18.0,78,30.06,10.0,West,18.4,27.6,N/A,,Overcast,280,2013-02-12 08:15:00
2:35 AM,23.9,18.3,79,30.07,10.0,West,12.7,-,N/A,,Overcast,280,2013-02-12 08:35:00
2:55 AM,24.4,18.9,79,30.06,10.0,West,15.0,-,N/A,,Overcast,280,2013-02-12 08:55:00
3:15 AM,24.6,19.2,80,30.05,10.0,West,10.4,-,N/A,,Overcast,280,2013-02-12 09:15:00
3:35 AM,24.6,19.2,80,30.05,10.0,West,12.7,19.6,N/A,,Overcast,280,2013-02-12 09:35:00
3:55 AM,24.4,18.9,79,30.06,10.0,West,15.0,20.7,N/A,,Overcast,280,2013-02-12 09:55:00
4:15 AM,23.9,18.9,81,30.06,10.0,West,15.0,19.6,N/A,,Overcast,280,2013-02-12 10:15:00
4:35 AM,22.8,17.4,80,30.06,10.0,West,17.3,-,N/A,,Overcast,280,2013-02-12 10:35:00
4:55 AM,22.8,17.4,80,30.06,10.0,West,13.8,19.6,N/A,,Overcast,280,2013-02-12 10:55:00
5:15 AM,22.8,17.6,80,30.06,10.0,WNW,15.0,-,N/A,,Overcast,290,2013-02-12 11:15:00
5:35 AM,23.0,17.6,80,30.06,10.0,West,9.2,-,N/A,,Overcast,280,2013-02-12 11:35:00
5:55 AM,23.0,17.8,80,30.06,10.0,WNW,12.7,-,N/A,,Overcast,290,2013-02-12 11:55:00
6:15 AM,23.4,18.3,81,30.07,10.0,West,11.5,-,N/A,,Overcast,280,2013-02-12 12:15:00
6:35 AM,23.5,18.5,81,30.06,10.0,WNW,13.8,17.3,N/A,,Overcast,290,2013-02-12 12:35:00
6:55 AM,23.0,18.1,82,30.04,10.0,West,9.2,12.7,N/A,,Overcast,280,2013-02-12 12:55:00
7:15 AM,23.4,18.5,82,30.06,10.0,West,8.1,-,N/A,,Overcast,280,2013-02-12 13:15:00
7:35 AM,23.5,18.7,82,30.08,10.0,West,9.2,12.7,N/A,,Overcast,260,2013-02-12 13:35:00
7:55 AM,23.9,19.0,82,30.07,10.0,WNW,15.0,-,N/A,,Overcast,290,2013-02-12 13:55:00
8:35 AM,23.5,18.9,82,30.07,10.0,West,8.1,-,N/A,,Overcast,280,2013-02-12 14:35:00
8:55 AM,23.9,19.2,82,30.07,10.0,West,11.5,-,N/A,,Overcast,270,2013-02-12 14:55:00
9:15 AM,24.3,19.4,82,30.08,10.0,West,11.5,-,N/A,,Overcast,260,2013-02-12 15:15:00
9:35 AM,24.3,19.2,81,30.09,10.0,WSW,12.7,-,N/A,,Overcast,240,2013-02-12 15:35:00
9:55 AM,24.4,19.4,81,30.07,10.0,WSW,12.7,-,N/A,,Overcast,250,2013-02-12 15:55:00
10:15 AM,25.0,20.1,82,30.08,10.0,West,10.4,-,N/A,,Overcast,270,2013-02-12 16:15:00
10:35 AM,24.8,19.6,81,30.08,10.0,WSW,10.4,-,N/A,,Overcast,250,2013-02-12 16:35:00
10:55 AM,25.7,20.3,80,30.08,10.0,West,11.5,-,N/A,,Overcast,260,2013-02-12 16:55:00
11:15 AM,25.7,20.1,79,30.07,10.0,West,9.2,-,N/A,,Overcast,270,2013-02-12 17:15:00
11:35 AM,25.7,20.3,80,30.06,10.0,West,11.5,-,N/A,,Overcast,280,2013-02-12 17:35:00
11:55 AM,26.4,21.0,80,30.04,10.0,West,12.7,16.1,N/A,,Overcast,270,2013-02-12 17:55:00
12:15 PM,26.4,21.0,80,30.02,10.0,West,11.5,-,N/A,,Overcast,280,2013-02-12 18:15:00
12:35 PM,26.2,20.7,79,30.01,10.0,West,12.7,18.4,N/A,,Overcast,280,2013-02-12 18:35:00
12:55 PM,25.5,20.3,81,30.02,10.0,WNW,13.8,-,N/A,,Overcast,290,2013-02-12 18:55:00
1:15 PM,25.7,20.3,80,30.01,10.0,West,9.2,-,N/A,,Overcast,270,2013-02-12 19:15:00
1:35 PM,26.2,20.3,78,30.01,10.0,WNW,12.7,-,N/A,,Overcast,290,2013-02-12 19:35:00
1:55 PM,26.6,20.1,77,30.01,10.0,West,11.5,-,N/A,,Overcast,280,2013-02-12 19:55:00
2:15 PM,26.6,19.8,75,30.01,10.0,West,12.7,-,N/A,,Overcast,280,2013-02-12 20:15:00
2:35 PM,26.8,19.8,75,30.01,10.0,West,9.2,-,N/A,,Overcast,260,2013-02-12 20:35:00
2:55 PM,28.4,20.3,72,30.01,10.0,West,10.4,17.3,N/A,,Overcast,260,2013-02-12 20:55:00
3:15 PM,27.9,19.9,72,30.00,10.0,West,11.5,-,N/A,,Scattered Clouds,270,2013-02-12 21:15:00
3:35 PM,28.2,20.1,72,29.99,10.0,West,11.5,-,N/A,,Scattered Clouds,270,2013-02-12 21:35:00
3:55 PM,28.4,20.5,72,29.99,10.0,West,6.9,-,N/A,,Clear,260,2013-02-12 21:55:00
4:15 PM,28.4,20.3,72,29.99,10.0,West,9.2,-,N/A,,Clear,260,2013-02-12 22:15:00
4:35 PM,27.9,20.5,74,29.99,10.0,WSW,9.2,-,N/A,,Clear,250,2013-02-12 22:35:00
4:55 PM,27.9,21.2,76,29.98,10.0,WSW,9.2,-,N/A,,Clear,240,2013-02-12 22:55:00
5:15 PM,27.1,21.2,78,29.98,10.0,SW,6.9,-,N/A,,Clear,220,2013-02-12 23:15:00
5:35 PM,26.6,21.2,80,29.98,10.0,SW,5.8,-,N/A,,Clear,230,2013-02-12 23:35:00
5:55 PM,26.6,21.2,80,29.97,10.0,SW,4.6,-,N/A,,Clear,220,2013-02-12 23:55:00
6:15 PM,26.6,21.6,81,29.96,10.0,Calm,Calm,-,N/A,,Clear,0,2013-02-13 00:15:00
6:35 PM,24.3,20.1,84,29.96,10.0,SSW,3.5,-,N/A,,Clear,210,2013-02-13 00:35:00
6:55 PM,23.0,18.7,84,29.95,10.0,South,4.6,-,N/A,,Clear,180,2013-02-13 00:55:00
7:15 PM,23.7,20.3,87,29.95,7.0,South,5.8,-,N/A,,Clear,170,2013-02-13 01:15:00
7:35 PM,22.6,19.4,87,29.95,7.0,South,5.8,-,N/A,,Clear,190,2013-02-13 01:35:00
7:55 PM,23.2,20.3,89,29.94,7.0,Calm,Calm,-,N/A,,Clear,0,2013-02-13 01:55:00
8:15 PM,23.0,19.9,88,29.94,7.0,SSW,4.6,-,N/A,,Clear,200,2013-02-13 02:15:00
8:35 PM,23.2,19.9,87,29.94,7.0,South,3.5,-,N/A,,Clear,170,2013-02-13 02:35:00
8:55 PM,23.0,20.1,89,29.93,7.0,Calm,Calm,-,N/A,,Clear,0,2013-02-13 02:55:00
9:15 PM,22.1,19.4,89,29.93,7.0,SSW,3.5,-,N/A,,Clear,200,2013-02-13 03:15:00
9:35 PM,21.0,18.1,89,29.92,7.0,South,5.8,-,N/A,,Clear,190,2013-02-13 03:35:00
9:55 PM,21.4,18.7,89,29.92,7.0,South,5.8,-,N/A,,Clear,190,2013-02-13 03:55:00
10:15 PM,21.2,18.3,89,29.92,7.0,South,4.6,-,N/A,,Clear,180,2013-02-13 04:15:00
10:35 PM,20.8,18.1,89,29.92,7.0,South,6.9,-,N/A,,Clear,180,2013-02-13 04:35:00
10:55 PM,21.0,18.3,89,29.91,7.0,South,6.9,-,N/A,,Clear,180,2013-02-13 04:55:00
11:15 PM,21.0,18.3,89,29.90,7.0,South,8.1,-,N/A,,Clear,190,2013-02-13 05:15:00
11:35 PM,21.4,18.7,89,29.89,7.0,South,8.1,-,N/A,,Clear,190,2013-02-13 05:35:00
11:55 PM,22.1,19.2,89,29.89,7.0,South,8.1,-,N/A,,Clear,190,2013-02-13 05:55:00